Time;durP1;ratioP1;P1;durP2;ratioP2;P2;SDS_P1;SDS_P2;PMS_P1;PMS_P2;Temp;Humidity;BMP_temperature;BMP_pressure;BME280_temperature;BME280_humidity;BME280_pressure;Samples;Min_cycle;Max_cycle;Signal;HPM_P1;HPM_P2
2022/05/18 00:00:27;;;;;;;3.50;2.25;;;;;;;-145.69;98.96;71601.38;5072590;28;20207;-74
2022/05/18 00:02:54;;;;;;;4.23;2.70;;;;;;;-145.69;99.90;71605.38;5072376;28;20206;-74
2022/05/18 00:05:21;;;;;;;5.85;2.60;;;;;;;-145.69;100.00;71609.34;5072650;28;20256;-74
2022/05/18 00:07:47;;;;;;;7.55;2.88;;;;;;;-145.69;100.00;71613.31;5072451;28;20310;-74
2022/05/18 00:10:14;;;;;;;10.55;2.40;;;;;;;-145.69;100.00;71619.28;5072729;28;20203;-74
2022/05/18 00:12:45;;;;;;;10.73;2.53;;;;;;;-145.69;100.00;71629.25;5072346;28;20207;-74
2022/05/18 00:15:14;;;;;;;5.93;2.25;;;;;;;-145.69;100.00;71633.22;5071758;28;20195;-74
2022/05/18 00:17:40;;;;;;;5.63;2.60;;;;;;;-145.69;100.00;71637.19;5072718;28;20286;-74
2022/05/18 00:20:08;;;;;;;6.77;2.40;;;;;;;-145.69;100.00;71619.28;5072520;28;20261;-74
2022/05/18 00:22:34;;;;;;;7.78;2.83;;;;;;;-145.69;100.00;71623.28;5071979;28;20202;-74
2022/05/18 00:25:01;;;;;;;13.93;2.83;;;;;;;-145.69;100.00;71633.22;5072344;28;20233;-74
2022/05/18 00:27:28;;;;;;;6.22;2.60;;;;;;;-145.69;100.00;71641.19;5072386;28;20230;-74
2022/05/18 00:29:55;;;;;;;7.23;2.70;;;;;;;-145.69;100.00;71641.19;5072236;28;20252;-74
2022/05/18 00:32:22;;;;;;;5.63;2.50;;;;;;;-145.69;100.00;71645.16;5072449;28;20198;-74
2022/05/18 00:34:48;;;;;;;5.17;2.63;;;;;;;-145.69;100.00;71641.19;5072158;28;20608;-74
2022/05/18 00:37:14;;;;;;;5.80;2.67;;;;;;;-145.69;100.00;71633.22;5072050;28;20199;-74
2022/05/18 00:39:41;;;;;;;8.73;2.67;;;;;;;-145.69;100.00;71631.25;5075685;28;20202;-74
2022/05/18 00:42:18;;;;;;;6.72;2.85;;;;;;;-145.69;100.00;71649.16;5075801;28;20206;-74
2022/05/18 00:44:44;;;;;;;6.77;2.90;;;;;;;-145.69;100.00;71649.16;5075624;28;20283;-74
2022/05/18 00:47:12;;;;;;;8.37;2.70;;;;;;;-145.69;100.00;71645.16;5075871;28;20207;-74
2022/05/18 00:49:40;;;;;;;6.20;3.00;;;;;;;-145.69;100.00;71629.25;5075372;28;20202;-74
2022/05/18 00:52:07;;;;;;;12.13;3.07;;;;;;;-145.69;100.00;71621.28;5074950;28;20346;-74
2022/05/18 00:54:36;;;;;;;5.73;3.07;;;;;;;-145.69;99.43;71619.28;5075477;28;20198;-74
2022/05/18 00:57:07;;;;;;;12.52;2.97;;;;;;;-145.69;100.00;71633.22;5075898;28;20202;-74
2022/05/18 00:59:37;;;;;;;4.35;2.65;;;;;;;-145.69;100.00;71633.22;5075609;28;20207;-74
2022/05/18 01:02:05;;;;;;;5.32;3.10;;;;;;;-145.69;100.00;71643.19;5075007;28;20198;-74
2022/05/18 01:04:33;;;;;;;9.23;3.13;;;;;;;-145.69;100.00;71649.16;5070309;28;20554;-74
2022/05/18 01:07:06;;;;;;;7.50;2.53;;;;;;;-145.69;100.00;71641.19;5055222;28;20206;-74
2022/05/18 01:09:37;;;;;;;7.17;3.40;;;;;;;-145.69;100.00;71645.16;5055004;28;20624;-74
2022/05/18 01:12:04;;;;;;;7.23;2.60;;;;;;;-145.69;100.00;71645.16;5055555;28;20203;-74
2022/05/18 01:14:36;;;;;;;5.90;2.80;;;;;;;-145.69;100.00;71651.13;5055240;28;20704;-74
2022/05/18 01:17:02;;;;;;;6.97;2.75;;;;;;;-145.69;100.00;71643.19;5055127;28;20199;-74
2022/05/18 01:19:39;;;;;;;6.47;2.90;;;;;;;-145.69;100.00;71655.13;5054263;28;20444;-74
2022/05/18 01:22:15;;;;;;;7.67;3.60;;;;;;;-145.69;100.00;71665.06;5063741;28;20903;-74
2022/05/18 01:24:52;;;;;;;9.17;3.00;;;;;;;-145.69;100.00;71671.03;5074546;28;20222;-74
2022/05/18 01:27:19;;;;;;;6.80;3.03;;;;;;;-145.69;100.00;71680.97;5075025;28;20202;-74
2022/05/18 01:29:46;;;;;;;6.57;3.27;;;;;;;-145.69;100.00;71679.00;5075121;28;20256;-74
2022/05/18 01:32:15;;;;;;;5.07;2.93;;;;;;;-145.69;100.00;71688.94;5074822;28;20199;-74
2022/05/18 01:34:42;;;;;;;5.18;3.20;;;;;;;-145.69;100.00;71690.94;5073538;28;20209;-75
2022/05/18 01:37:09;;;;;;;7.40;2.78;;;;;;;-145.69;100.00;71692.94;5074554;28;20348;-74
2022/05/18 01:39:39;;;;;;;6.47;2.75;;;;;;;-145.69;100.00;71696.91;5074905;28;20289;-74
2022/05/18 01:42:14;;;;;;;8.00;3.10;;;;;;;-145.69;100.00;71696.91;5074797;28;20203;-74
2022/05/18 01:44:42;;;;;;;6.23;3.83;;;;;;;-145.69;100.00;71702.88;5074629;28;20222;-74
2022/05/18 01:47:09;;;;;;;7.60;3.27;;;;;;;-145.69;100.00;71718.78;5074544;28;20214;-74
2022/05/18 01:49:38;;;;;;;7.53;3.40;;;;;;;-145.69;100.00;71714.81;5073264;28;20206;-75
2022/05/18 01:52:06;;;;;;;10.57;2.97;;;;;;;-145.69;100.00;71698.91;5074007;28;20191;-74
2022/05/18 01:54:37;;;;;;;10.13;3.20;;;;;;;-145.69;100.00;71708.84;5074610;28;20256;-74
2022/05/18 01:57:04;;;;;;;7.35;3.13;;;;;;;-145.69;100.00;71720.78;5074409;28;20202;-76
2022/05/18 01:59:31;;;;;;;4.47;3.17;;;;;;;-145.69;100.00;71730.72;5074267;28;20719;-74
2022/05/18 02:01:58;;;;;;;7.77;3.50;;;;;;;-145.69;100.00;71732.72;5074533;28;20199;-74
2022/05/18 02:04:25;;;;;;;13.30;3.43;;;;;;;-145.69;100.00;71744.66;5073825;28;20603;-74
2022/05/18 02:06:51;;;;;;;7.67;3.73;;;;;;;-145.69;100.00;71760.59;5074236;28;20272;-74
2022/05/18 02:09:20;;;;;;;6.60;3.17;;;;;;;-145.69;100.00;71764.56;5074029;28;20225;-75
2022/05/18 02:11:47;;;;;;;5.87;3.47;;;;;;;-145.69;100.00;71754.63;5073578;28;20203;-74
2022/05/18 02:14:13;;;;;;;7.77;3.80;;;;;;;-145.69;100.00;71748.66;5074325;28;20233;-74
2022/05/18 02:16:40;;;;;;;7.40;3.70;;;;;;;-145.69;100.00;71740.69;5074185;28;20289;-74
2022/05/18 02:19:08;;;;;;;9.67;4.43;;;;;;;-145.69;100.00;71728.75;5074144;28;20561;-76
2022/05/18 02:21:34;;;;;;;6.27;3.50;;;;;;;-145.69;100.00;71720.78;5073332;28;20198;-74
2022/05/18 02:24:01;;;;;;;11.10;3.80;;;;;;;-145.69;100.00;71702.88;5073605;28;20191;-74
2022/05/18 02:26:28;;;;;;;6.93;4.00;;;;;;;-145.69;100.00;71688.94;5073600;28;20261;-76
2022/05/18 02:28:54;;;;;;;8.80;4.65;;;;;;;-145.69;100.00;71682.97;5072548;28;20442;-74
2022/05/18 02:31:21;;;;;;;10.90;4.13;;;;;;;-145.69;100.00;71686.97;5074023;28;20249;-74
2022/05/18 02:33:47;;;;;;;10.40;3.90;;;;;;;-145.69;100.00;71661.09;5073419;28;20649;-74
2022/05/18 02:36:15;;;;;;;9.17;4.00;;;;;;;-145.69;100.00;71682.97;5073553;28;20202;-73
2022/05/18 02:38:42;;;;;;;7.67;3.83;;;;;;;-145.69;100.00;71692.94;5073565;28;20600;-74
2022/05/18 02:41:09;;;;;;;8.95;4.05;;;;;;;-145.69;100.00;71684.97;5073364;28;20653;-73
2022/05/18 02:43:38;;;;;;;11.57;3.90;;;;;;;-145.69;100.00;71688.94;5073408;28;20672;-74
2022/05/18 02:46:06;;;;;;;7.88;3.92;;;;;;;-145.69;100.00;71698.91;5073485;28;20313;-76
2022/05/18 02:48:33;;;;;;;16.60;5.38;;;;;;;-145.69;100.00;71708.84;5073657;28;20198;-76
2022/05/18 02:51:00;;;;;;;15.90;4.67;;;;;;;-145.69;100.00;71684.97;5073464;28;20238;-77
2022/05/18 02:53:27;;;;;;;10.27;4.27;;;;;;;-145.69;100.00;71669.03;5072902;28;20195;-76
2022/05/18 02:56:08;;;;;;;10.07;3.72;;;;;;;-145.69;100.00;71661.09;5053307;28;20257;-76
2022/05/18 02:58:37;;;;;;;7.70;3.87;;;;;;;-145.69;100.00;71661.09;5055471;28;20716;-76
2022/05/18 03:01:05;;;;;;;6.77;3.50;;;;;;;-145.69;100.00;71669.03;5053112;28;20618;-76
2022/05/18 03:03:32;;;;;;;12.80;4.10;;;;;;;-145.69;100.00;71663.06;5061073;28;20202;-76
2022/05/18 03:05:58;;;;;;;5.33;3.20;;;;;;;-145.69;98.29;71645.16;5070954;28;20679;-76
2022/05/18 03:08:25;;;;;;;7.07;3.95;;;;;;;-145.69;98.05;71643.19;5073079;28;20203;-76
2022/05/18 03:10:53;;;;;;;6.70;3.30;;;;;;;-145.69;96.54;71645.16;5073343;28;20302;-76
2022/05/18 03:13:19;;;;;;;8.87;3.10;;;;;;;-145.69;96.74;71649.16;5073012;28;20207;-76
2022/05/18 03:15:47;;;;;;;5.78;2.97;;;;;;;-145.69;95.63;71645.16;5073149;28;20202;-75
2022/05/18 03:18:14;;;;;;;8.60;3.72;;;;;;;-145.69;97.27;71645.16;5073043;28;20199;-76
2022/05/18 03:23:36;;;;;;;5.43;3.30;;;;;;;-145.69;95.62;71657.09;5072781;28;20197;-76
2022/05/18 03:26:09;;;;;;;9.88;3.35;;;;;;;-145.69;96.04;71655.13;5073056;28;20225;-76
2022/05/18 03:28:38;;;;;;;5.10;2.95;;;;;;;-145.69;94.25;71661.09;5073055;28;20199;-76
2022/05/18 03:31:06;;;;;;;7.40;3.58;;;;;;;-145.69;95.61;71669.03;5072790;28;20240;-76
2022/05/18 03:33:33;;;;;;;7.90;3.20;;;;;;;-145.69;95.82;71671.03;5072903;28;20210;-76
2022/05/18 03:35:59;;;;;;;5.72;3.00;;;;;;;-145.69;94.33;71673.03;5071910;28;20492;-76
2022/05/18 03:38:26;;;;;;;5.30;2.65;;;;;;;-145.69;92.83;71659.09;5072933;28;20202;-76
2022/05/18 03:40:53;;;;;;;7.50;3.28;;;;;;;-145.69;93.85;71653.13;5072526;28;20214;-76
2022/05/18 03:43:21;;;;;;;4.43;3.10;;;;;;;-145.69;93.68;71673.03;5072786;28;20206;-76
2022/05/18 03:45:48;;;;;;;5.53;3.10;;;;;;;-145.69;96.43;71679.00;5072741;28;20230;-76
2022/05/18 03:48:16;;;;;;;6.03;2.88;;;;;;;-145.69;93.63;71677.00;5072956;28;20335;-76
2022/05/18 03:50:45;;;;;;;3.92;2.58;;;;;;;-145.69;93.76;71675.00;5072253;28;20230;-76
2022/05/18 03:53:12;;;;;;;11.20;2.80;;;;;;;-145.69;92.54;71669.03;5072675;28;20206;-76
2022/05/18 03:55:41;;;;;;;4.53;3.00;;;;;;;-145.69;95.23;71680.97;5072429;28;20195;-76
2022/05/18 03:58:09;;;;;;;6.60;2.80;;;;;;;-145.69;93.00;71671.03;5072204;28;20199;-77
2022/05/18 04:00:39;;;;;;;6.55;3.05;;;;;;;-145.69;93.08;71665.06;5072643;28;20202;-77
2022/05/18 04:03:06;;;;;;;10.15;3.03;;;;;;;-145.69;91.45;71659.09;5072569;28;20283;-76
2022/05/18 04:05:37;;;;;;;4.32;2.88;;;;;;;-145.69;92.80;71671.03;5072512;28;20697;-77
2022/05/18 04:08:05;;;;;;;4.13;2.60;;;;;;;-145.69;92.51;71665.06;5072031;28;20206;-76
2022/05/18 04:10:32;;;;;;;10.02;3.28;;;;;;;-145.69;93.75;71682.97;5072366;28;20202;-76
2022/05/18 04:12:58;;;;;;;5.60;2.90;;;;;;;-145.69;94.45;71686.97;5073956;28;20226;-76
2022/05/18 04:15:25;;;;;;;6.22;2.85;;;;;;;-145.69;93.07;71684.97;5076699;28;20202;-76
2022/05/18 04:17:53;;;;;;;8.75;3.15;;;;;;;-145.69;92.96;71677.00;5076527;28;20565;-77
2022/05/18 04:20:21;;;;;;;7.80;2.70;;;;;;;-145.69;91.73;71669.03;5076818;28;20256;-76
2022/05/18 04:22:49;;;;;;;9.70;3.38;;;;;;;-145.69;92.44;71673.03;5076220;28;20198;-76
2022/05/18 04:25:18;;;;;;;5.47;3.25;;;;;;;-145.69;92.83;71669.03;5075651;28;20195;-76
2022/05/18 04:27:47;;;;;;;8.27;3.05;;;;;;;-145.69;92.51;71661.09;5076318;28;20289;-76
2022/05/18 04:30:14;;;;;;;13.07;3.22;;;;;;;-145.69;91.83;71653.13;5076224;28;20569;-76
2022/05/18 04:32:41;;;;;;;6.68;2.97;;;;;;;-145.69;92.30;71657.09;5076110;28;20447;-76
2022/05/18 04:35:11;;;;;;;5.38;2.75;;;;;;;-145.69;91.09;71647.16;5076096;28;20260;-76
2022/05/18 04:37:37;;;;;;;4.85;2.67;;;;;;;-145.69;92.53;71643.19;5075973;28;20274;-76
2022/05/18 04:40:05;;;;;;;5.20;3.00;;;;;;;-145.69;91.97;71649.16;5076092;28;20252;-76
2022/05/18 04:42:32;;;;;;;6.55;2.92;;;;;;;-145.69;91.46;71649.16;5075582;28;20202;-76
2022/05/18 04:44:58;;;;;;;5.03;2.90;;;;;;;-145.69;91.46;71641.19;5075969;28;20199;-74
2022/05/18 04:47:25;;;;;;;11.55;3.15;;;;;;;-145.69;90.84;71633.22;5075853;28;20231;-76
2022/05/18 04:49:52;;;;;;;6.95;2.80;;;;;;;-145.69;90.59;71613.31;5075570;28;20713;-76
2022/05/18 04:52:20;;;;;;;5.35;2.60;;;;;;;-145.69;90.93;71617.31;5075394;28;20202;-76
2022/05/18 04:54:46;;;;;;;4.68;2.75;;;;;;;-145.69;92.29;71621.28;5075382;28;20195;-76
2022/05/18 04:57:13;;;;;;;5.45;2.88;;;;;;;-145.69;91.80;71621.28;5075616;28;20228;-76
2022/05/18 04:59:39;;;;;;;10.65;3.22;;;;;;;-145.69;90.42;71609.34;5073994;28;20656;-75
2022/05/18 05:02:06;;;;;;;6.13;3.17;;;;;;;-145.69;92.02;71613.31;5057695;28;20199;-76
2022/05/18 05:04:33;;;;;;;6.65;3.05;;;;;;;-145.69;90.47;71599.41;5055526;28;20203;-76
2022/05/18 05:07:00;;;;;;;7.40;3.22;;;;;;;-145.69;89.29;71581.50;5055261;28;20636;-76
2022/05/18 05:09:28;;;;;;;9.43;2.70;;;;;;;-145.69;88.29;71565.56;5055299;28;20654;-77
2022/05/18 05:11:55;;;;;;;6.05;2.83;;;;;;;-145.69;88.55;71561.59;5055447;28;20261;-76
2022/05/18 05:14:22;;;;;;;8.40;2.72;;;;;;;-145.69;88.50;71553.63;5055213;28;20203;-76
2022/05/18 05:16:49;;;;;;;3.20;2.28;;;;;;;-145.69;86.46;71533.72;5055166;28;20609;-76
2022/05/18 05:19:16;;;;;;;5.85;2.70;;;;;;;-145.69;86.44;71525.78;5054844;28;20621;-76
2022/05/18 05:21:42;;;;;;;6.57;2.90;;;;;;;-145.69;84.98;71499.91;5055430;28;20200;-76
2022/05/18 05:24:09;;;;;;;5.38;2.72;;;;;;;-145.69;84.34;71489.94;5058474;28;20197;-76
2022/05/18 05:26:38;;;;;;;8.05;2.67;;;;;;;-145.69;84.03;71483.97;5075139;28;20222;-76
2022/05/18 05:29:05;;;;;;;6.25;2.90;;;;;;;-145.69;83.54;71478.00;5075118;28;20195;-77
2022/05/18 05:31:32;;;;;;;3.65;2.50;;;;;;;-145.69;82.24;71454.13;5074749;28;20195;-76
2022/05/18 05:33:58;;;;;;;5.25;2.78;;;;;;;-145.69;83.01;71420.31;5074877;28;20202;-76
2022/05/18 05:36:25;;;;;;;9.05;2.78;;;;;;;-145.69;79.98;71372.53;5074864;28;20206;-76
2022/05/18 05:38:52;;;;;;;6.22;2.60;;;;;;;-145.69;77.54;71314.84;5075001;28;20328;-77
2022/05/18 05:41:19;;;;;;;4.18;2.33;;;;;;;-145.69;73.74;71261.13;5074697;28;20203;-74
2022/05/18 05:43:47;;;;;;;4.88;2.13;;;;;;;-145.69;72.24;71225.31;5074878;28;20245;-74
2022/05/18 05:46:14;;;;;;;5.25;2.13;;;;;;;-145.69;71.65;71185.50;5074492;28;20245;-74
2022/05/18 05:48:42;;;;;;;4.95;2.03;;;;;;;-145.69;67.33;71123.81;5074492;28;20240;-76
2022/05/18 05:51:12;;;;;;;4.57;2.15;;;;;;;-145.69;67.65;71129.78;5074366;28;20253;-74
2022/05/18 05:53:39;;;;;;;6.18;2.40;;;;;;;-145.69;66.75;71107.91;5074302;28;20209;-74
2022/05/18 05:56:07;;;;;;;7.50;2.60;;;;;;;-145.69;67.53;71101.94;5074045;28;20230;-76
2022/05/18 05:58:35;;;;;;;3.92;2.30;;;;;;;-145.69;64.69;71064.13;5074466;28;20203;-74
2022/05/18 06:01:04;;;;;;;3.25;2.00;;;;;;;-145.69;63.42;71042.25;5074271;28;20206;-74
2022/05/18 06:03:31;;;;;;;4.85;2.03;;;;;;;-145.69;62.37;71032.28;5074348;28;20260;-74
2022/05/18 06:05:58;;;;;;;4.85;2.22;;;;;;;-145.69;60.64;70980.56;5074054;28;20601;-74
2022/05/18 06:08:25;;;;;;;3.30;2.03;;;;;;;-145.69;61.51;71002.44;5074186;28;20199;-74
2022/05/18 06:10:51;;;;;;;3.25;2.10;;;;;;;-145.69;63.01;71028.31;5074269;28;20206;-75
2022/05/18 06:13:18;;;;;;;3.33;2.00;;;;;;;-145.69;62.44;71036.28;5074015;28;20203;-74
2022/05/18 06:15:44;;;;;;;7.72;1.90;;;;;;;-145.69;63.78;71062.13;5073907;28;20194;-74
2022/05/18 06:18:12;;;;;;;7.10;2.28;;;;;;;-145.69;63.91;71060.16;5073735;28;20669;-74
2022/05/18 06:20:38;;;;;;;5.22;2.20;;;;;;;-145.69;64.28;71068.13;5074056;28;20244;-75
2022/05/18 06:23:08;;;;;;;4.13;2.30;;;;;;;-145.69;62.46;71070.09;5073581;28;20252;-75
2022/05/18 06:25:35;;;;;;;4.78;2.47;;;;;;;-145.69;64.94;71052.19;5073691;28;20245;-76
2022/05/18 06:28:02;;;;;;;4.03;2.17;;;;;;;-145.69;63.67;71042.25;5073726;28;20230;-76
2022/05/18 06:30:29;;;;;;;7.35;2.22;;;;;;;-145.69;62.91;71042.25;5073960;28;20206;-77
2022/05/18 06:32:56;;;;;;;6.15;2.95;;;;;;;-145.69;61.19;71042.25;5073541;28;20534;-74
2022/05/18 06:35:24;;;;;;;4.07;2.50;;;;;;;-145.69;61.87;71050.22;5073048;28;20221;-74
2022/05/18 06:37:51;;;;;;;6.80;2.55;;;;;;;-145.69;63.26;71042.25;5073502;28;20206;-74
2022/05/18 06:40:18;;;;;;;4.35;2.35;;;;;;;-145.69;63.62;71024.34;5073880;28;20198;-75
2022/05/18 06:42:45;;;;;;;5.32;2.53;;;;;;;-145.69;60.26;71032.28;5073346;28;20207;-74
2022/05/18 06:45:13;;;;;;;4.47;2.35;;;;;;;-145.69;62.93;70988.53;5073391;28;20201;-74
2022/05/18 06:47:40;;;;;;;5.63;2.60;;;;;;;-145.69;60.18;70996.47;5073618;28;20232;-75
2022/05/18 06:50:09;;;;;;;5.90;2.47;;;;;;;-145.69;61.59;70996.47;5073407;28;20735;-76
2022/05/18 06:52:37;;;;;;;5.68;2.75;;;;;;;-145.69;58.34;71008.41;5072382;28;20441;-77
2022/05/18 06:55:04;;;;;;;5.53;2.53;;;;;;;-145.69;59.39;71020.34;5072909;28;20195;-74
2022/05/18 06:57:31;;;;;;;5.30;2.42;;;;;;;-145.69;62.87;71000.47;5073252;28;20211;-76
2022/05/18 06:59:57;;;;;;;4.18;2.75;;;;;;;-145.69;60.81;70978.56;5073205;28;20202;-76
2022/05/18 07:02:24;;;;;;;4.05;2.17;;;;;;;-145.69;60.25;70992.50;5073140;28;20727;-76
2022/05/18 07:04:50;;;;;;;6.45;2.30;;;;;;;-145.69;60.56;70996.47;5073187;28;20199;-76
2022/05/18 07:07:17;;;;;;;5.40;2.63;;;;;;;-145.69;60.02;71002.44;5073128;28;20272;-77
2022/05/18 07:09:46;;;;;;;4.95;2.67;;;;;;;-145.69;59.96;71008.41;5056132;28;20202;-76
2022/05/18 07:12:13;;;;;;;3.90;2.40;;;;;;;-145.69;60.94;71008.41;5053370;28;20258;-76
2022/05/18 07:14:40;;;;;;;3.88;2.45;;;;;;;-145.69;59.13;70996.47;5053107;28;20293;-76
2022/05/18 07:17:06;;;;;;;5.35;2.70;;;;;;;-145.69;60.44;70992.50;5052144;28;20658;-76
2022/05/18 07:19:33;;;;;;;5.35;2.92;;;;;;;-145.69;61.53;70994.50;5052988;28;20205;-76
2022/05/18 07:21:59;;;;;;;4.63;2.65;;;;;;;-145.69;60.74;70982.56;5053074;28;20204;-75
2022/05/18 07:24:26;;;;;;;8.70;2.75;;;;;;;-145.69;58.94;70980.56;5063748;28;20206;-75
2022/05/18 07:26:56;;;;;;;5.35;2.83;;;;;;;-145.69;59.26;70966.63;5072781;28;20317;-75
2022/05/18 07:29:25;;;;;;;6.43;2.80;;;;;;;-145.69;61.42;70956.69;5072912;28;20277;-76
2022/05/18 07:32:12;;;;;;;8.40;3.00;;;;;;;-145.69;56.57;70966.63;5072864;28;20221;-76
2022/05/18 07:34:39;;;;;;;6.95;3.08;;;;;;;-145.69;59.08;70960.66;5073462;28;20230;-76
2022/05/18 07:37:07;;;;;;;7.47;2.97;;;;;;;-145.69;59.62;70952.72;5073107;28;20206;-76
2022/05/18 07:39:34;;;;;;;8.35;2.65;;;;;;;-145.69;58.30;70968.63;5072424;28;20256;-76
2022/05/18 07:42:04;;;;;;;11.35;2.55;;;;;;;-145.69;61.71;70922.88;5072961;28;20256;-76
2022/05/18 07:44:34;;;;;;;4.57;2.80;;;;;;;-145.69;58.69;70897.00;5072760;28;20272;-76
2022/05/18 07:47:02;;;;;;;5.30;3.00;;;;;;;-145.69;61.59;70891.03;5072687;28;20313;-76
2022/05/18 07:49:29;;;;;;;3.92;2.47;;;;;;;-145.69;60.16;70908.94;5075981;28;20209;-76
2022/05/18 07:51:55;;;;;;;5.82;2.40;;;;;;;-145.69;57.67;70899.00;5075741;28;20202;-76
2022/05/18 07:54:24;;;;;;;6.80;2.40;;;;;;;-145.69;56.24;70881.09;5076723;28;20195;-76
2022/05/18 07:56:52;;;;;;;4.80;2.47;;;;;;;-145.69;61.44;70859.19;5077007;28;20199;-76
2022/05/18 07:59:20;;;;;;;8.48;2.40;;;;;;;-145.69;53.95;70881.09;5076910;28;20240;-76
2022/05/18 08:01:46;;;;;;;5.22;2.58;;;;;;;-145.69;60.21;70857.22;5076174;28;20194;-76
2022/05/18 08:04:13;;;;;;;8.13;2.53;;;;;;;-145.69;55.26;70869.16;5074984;28;20653;-76
2022/05/18 08:06:42;;;;;;;5.65;2.15;;;;;;;-145.69;54.21;70887.06;5074452;28;20230;-76
2022/05/18 08:09:08;;;;;;;4.47;2.20;;;;;;;-145.69;54.63;70879.09;5074797;28;20203;-76
2022/05/18 08:17:17;;;;;;;3.05;1.75;;;;;;;-145.69;57.83;70829.34;5049792;28;20308;-76
2022/05/18 08:19:44;;;;;;;8.40;2.70;;;;;;;-145.69;53.72;70813.44;5076148;28;20294;-76
2022/05/18 08:22:10;;;;;;;4.40;2.10;;;;;;;-145.69;54.04;70827.38;5076303;28;20565;-76
2022/05/18 08:24:37;;;;;;;4.35;1.90;;;;;;;-145.69;56.29;70821.41;5076130;28;20653;-76
2022/05/18 08:27:05;;;;;;;4.28;1.90;;;;;;;-145.69;52.89;70815.44;5076098;28;20234;-76
2022/05/18 08:29:33;;;;;;;6.63;2.00;;;;;;;-145.69;53.60;70793.53;5076321;28;20260;-76
2022/05/18 08:32:00;;;;;;;4.13;2.00;;;;;;;-145.69;55.37;70771.66;5076272;28;20234;-76
2022/05/18 08:34:27;;;;;;;2.55;1.80;;;;;;;-145.69;53.92;70763.69;5076080;28;20657;-76
2022/05/18 08:36:53;;;;;;;5.78;1.90;;;;;;;-145.69;53.27;70775.63;5075610;28;20557;-76
2022/05/18 08:39:21;;;;;;;5.55;2.22;;;;;;;-145.69;52.69;70789.56;5075984;28;20202;-76
2022/05/18 08:41:50;;;;;;;3.58;2.05;;;;;;;-145.69;57.92;70757.72;5075823;28;20199;-76
2022/05/18 08:44:25;;;;;;;2.47;1.85;;;;;;;-145.69;53.35;70773.66;5076214;28;20226;-76
2022/05/18 08:47:00;;;;;;;5.43;2.15;;;;;;;-145.69;55.14;70789.56;5075878;28;20308;-76
2022/05/18 08:49:34;;;;;;;3.00;2.05;;;;;;;-145.69;61.46;70765.69;5075896;28;20671;-76
2022/05/18 08:52:15;;;;;;;6.13;2.55;;;;;;;-145.69;51.77;70791.56;5075669;28;20205;-76
2022/05/18 08:54:53;;;;;;;2.72;1.90;;;;;;;-145.69;51.16;70765.69;5075681;28;20201;-76
2022/05/18 08:57:24;;;;;;;4.47;2.22;;;;;;;-145.69;52.31;70751.75;5075484;28;20738;-76
2022/05/18 08:59:58;;;;;;;5.70;2.60;;;;;;;-145.69;52.18;70781.59;5075148;28;20199;-76
2022/05/18 09:02:32;;;;;;;2.60;1.63;;;;;;;-145.69;50.70;70775.63;5075436;28;20221;-76
2022/05/18 09:05:02;;;;;;;5.20;2.20;;;;;;;-145.69;52.19;70771.66;5075407;28;20256;-76
2022/05/18 09:07:35;;;;;;;3.33;2.00;;;;;;;-145.69;50.05;70777.63;5075548;28;20222;-76
2022/05/18 09:10:16;;;;;;;7.78;2.20;;;;;;;-145.69;47.36;70749.78;5075574;28;20206;-76
2022/05/18 09:12:44;;;;;;;3.70;2.28;;;;;;;-145.69;52.98;70743.81;5067868;28;20235;-76
2022/05/18 09:15:15;;;;;;;3.00;2.25;;;;;;;-145.69;52.86;70751.75;5055512;28;20261;-76
2022/05/18 09:17:53;;;;;;;6.30;2.72;;;;;;;-145.69;55.49;70743.81;5055481;28;20211;-76
2022/05/18 09:20:22;;;;;;;6.35;2.50;;;;;;;-145.69;51.39;70723.91;5055259;28;20268;-76
2022/05/18 09:23:12;;;;;;;4.72;2.10;;;;;;;-145.69;55.53;70713.97;5054823;28;20195;-76
2022/05/18 09:25:55;;;;;;;4.10;2.15;;;;;;;-145.69;51.68;70706.00;5054582;28;20596;-77
2022/05/18 09:28:35;;;;;;;2.70;1.80;;;;;;;-145.69;51.31;70682.13;5054797;28;20236;-77
2022/05/18 09:31:21;;;;;;;6.18;2.40;;;;;;;-145.69;52.46;70690.09;5055047;28;20253;-77
2022/05/18 09:34:08;;;;;;;4.95;2.30;;;;;;;-145.69;50.09;70737.84;5054755;28;20265;-76
2022/05/18 09:36:58;;;;;;;4.68;2.00;;;;;;;-145.69;53.98;70704.00;5070563;28;20199;-76
2022/05/18 09:39:31;;;;;;;4.85;1.75;;;;;;;-145.69;46.61;70708.00;5073381;28;20654;-75
2022/05/18 09:42:01;;;;;;;3.17;2.15;;;;;;;-145.69;47.70;70717.94;5073803;28;20256;-75
2022/05/18 09:44:40;;;;;;;3.53;2.00;;;;;;;-145.69;47.48;70731.88;5074049;28;20206;-74
2022/05/18 09:47:10;;;;;;;2.85;1.83;;;;;;;-145.69;49.25;70727.88;5074035;28;20301;-75
2022/05/18 09:49:45;;;;;;;5.32;1.85;;;;;;;-145.69;46.29;70725.91;5074476;28;20274;-74
2022/05/18 09:52:15;;;;;;;3.05;1.67;;;;;;;-145.69;48.88;70721.91;5074602;28;20220;-74
2022/05/18 09:54:44;;;;;;;4.75;2.17;;;;;;;-145.69;44.00;70721.91;5074720;28;20207;-75
2022/05/18 09:57:17;;;;;;;2.72;1.75;;;;;;;-145.69;46.26;70713.97;5074010;28;20264;-74
2022/05/18 09:59:49;;;;;;;6.18;2.35;;;;;;;-145.69;46.73;70702.03;5074134;28;20643;-74
2022/05/18 10:07:52;;;;;;;3.05;1.70;;;;;;;-145.69;44.94;70690.09;5074342;28;20704;-74
2022/05/18 10:10:24;;;;;;;2.95;1.48;;;;;;;-145.69;46.27;70684.13;5073403;28;20248;-74
2022/05/18 10:13:02;;;;;;;5.50;1.63;;;;;;;-145.69;45.39;70678.16;5074281;28;20210;-74
2022/05/18 10:15:35;;;;;;;1.58;1.35;;;;;;;-145.69;43.42;70674.16;5074335;28;20210;-74
2022/05/18 10:18:14;;;;;;;2.88;1.25;;;;;;;-145.69;43.84;70656.25;5074415;28;20194;-75
2022/05/18 10:20:42;;;;;;;2.35;1.30;;;;;;;-145.69;44.53;70638.34;5074292;28;20206;-74
2022/05/18 10:23:30;;;;;;;3.03;1.38;;;;;;;-145.69;42.62;70636.38;5073842;28;20203;-74
2022/05/18 10:25:57;;;;;;;1.60;1.30;;;;;;;-145.69;41.40;70652.28;5073955;28;20248;-74
2022/05/18 10:28:26;;;;;;;2.28;1.10;;;;;;;-145.69;39.94;70622.44;5073908;28;20242;-75
2022/05/18 10:30:55;;;;;;;2.75;1.30;;;;;;;-145.69;40.57;70662.22;5073971;28;20195;-75
2022/05/18 10:33:23;;;;;;;1.73;1.17;;;;;;;-145.69;43.29;70636.38;5074001;28;20202;-74
2022/05/18 10:35:53;;;;;;;4.13;1.20;;;;;;;-145.69;41.88;70616.47;5073397;28;20248;-74
2022/05/18 10:38:23;;;;;;;2.53;1.52;;;;;;;-145.69;41.35;70594.59;5064855;28;20199;-74
2022/05/18 10:40:49;;;;;;;1.63;1.23;;;;;;;-145.69;40.81;70582.66;5053405;28;20200;-74
2022/05/18 10:43:35;;;;;;;2.80;1.10;;;;;;;-145.69;37.96;70550.81;5053687;28;20203;-75
2022/05/18 10:46:04;;;;;;;2.00;1.20;;;;;;;-145.69;42.90;70566.75;5053638;28;20203;-75
2022/05/18 10:48:33;;;;;;;1.50;1.10;;;;;;;-145.69;36.98;70604.53;5053328;28;20234;-75
2022/05/18 10:51:07;;;;;;;2.10;1.40;;;;;;;-145.69;40.49;70580.66;5053341;28;20262;-75
2022/05/18 10:53:37;;;;;;;4.00;1.55;;;;;;;-145.69;41.84;70544.84;5053599;28;20293;-75
2022/05/18 10:56:11;;;;;;;2.45;1.00;;;;;;;-145.69;37.97;70526.94;5053492;28;20199;-74
2022/05/18 10:58:43;;;;;;;2.13;1.10;;;;;;;-145.69;37.21;70507.06;5053283;28;20210;-75
2022/05/18 11:01:19;;;;;;;1.90;0.98;;;;;;;-145.69;37.68;70487.16;5053218;28;20199;-74
2022/05/18 11:03:57;;;;;;;2.65;1.15;;;;;;;-145.69;38.67;70479.19;5053595;28;20195;-75
2022/05/18 11:06:32;;;;;;;5.45;2.28;;;;;;;-145.69;38.28;70495.13;5053270;28;20206;-74
2022/05/18 11:09:02;;;;;;;3.53;1.17;;;;;;;-145.69;36.93;70491.13;5052947;28;20226;-74
2022/05/18 11:11:39;;;;;;;2.17;1.20;;;;;;;-145.69;37.95;70487.16;5053008;28;20208;-73
2022/05/18 11:14:15;;;;;;;3.42;1.60;;;;;;;-145.69;36.42;70495.13;5053235;28;20199;-77
2022/05/18 11:16:54;;;;;;;1.95;1.08;;;;;;;-145.69;37.22;70511.03;5053106;28;20195;-74
2022/05/18 11:19:32;;;;;;;4.13;1.30;;;;;;;-145.69;38.00;70483.19;5052919;28;20676;-74
2022/05/18 11:22:15;;;;;;;2.08;1.20;;;;;;;-145.69;39.48;70447.38;5071308;28;20257;-74
2022/05/18 11:24:46;;;;;;;1.67;1.00;;;;;;;-145.69;36.43;70449.38;5073073;28;20226;-74
2022/05/18 11:27:25;;;;;;;2.63;1.20;;;;;;;-145.69;37.85;70479.19;5072092;28;20853;-74
2022/05/18 11:30:05;;;;;;;3.92;1.10;;;;;;;-145.69;36.45;70423.50;5072930;28;20199;-74
2022/05/18 11:32:53;;;;;;;1.80;1.10;;;;;;;-145.69;38.18;70407.59;5072850;28;20203;-73
2022/05/18 11:35:32;;;;;;;5.43;1.23;;;;;;;-145.69;37.39;70419.53;5072699;28;20283;-74
2022/05/18 11:38:27;;;;;;;1.92;1.10;;;;;;;-145.69;36.49;70423.50;5072973;28;20207;-73